Historyczne dane pomiarowe

Dodano dane terminowe – wersja testowa.

Dane z okresu 1951-2019

Wersja bazy: 1.34 [2019-03-16, lista zmian], aktualizacja planowana na 2019-04-15

Dane meteo z obszaru Polski uzyskane na podstawie danych udostępnionych przez Instytut Meteorologii i Gospodarki Wodnej – Państwowy Instytut Badawczy.

 

Wybierz Datę:    

       

TemperaturaWilgotnośćWiatrCiśnienieOpadyŚniegCzas trwania zjawisk
 Stacja t tx tn tng RH VA  wxwx mslp ppp RRR   cm mm wxwxwxwxwxwxwx
2016-08-13 21.0 26.8 15.1 13.0 72.8 17.5------ 0.0--x---------
2016-08-14 17.8 22.8 11.4 9.4 71.7 14.3------ 0.0--x---------
2016-08-15 16.4 22.2 11.0 8.1 70.7 12.8------ 0.0--x---------
2016-08-16 13.9 20.0 7.0 5.2 81.0 12.5------ 10.9--x---------
2016-08-17 13.8 20.7 9.8 8.4 83.6 12.9------ 0.0--x---------
2016-08-18 15.5 21.8 8.8 7.1 78.0 13.4------ 0.0--x---------
2016-08-19 17.5 27.0 8.3 6.8 72.8 13.5------ 0.0--x---------
2016-08-20 19.4 26.9 11.3 9.3 77.0 17.2------ 6.3--x---------
2016-08-21 17.4 23.4 11.4 9.7 86.1 17.0------ 0.0--x---------
2016-08-22 16.8 23.6 10.6 9.0 79.3 14.8------ 0.0--x---------
2016-08-23 18.7 24.2 12.3 10.1 80.2 17.1------ 0.0--x---------
2016-08-24 18.7 25.9 11.4 9.6 76.9 16.0------ 0.0--x---------
2016-08-25 19.1 27.7 9.7 7.7 71.3 14.8------ 0.0--x---------
2016-08-26 20.2 30.3 10.7 7.7 69.7 15.3------ 0.0--x---------
2016-08-27 21.2 32.2 10.6 8.4 69.5 15.9------ 0.0--x---------
2016-08-28 22.9 32.3 11.5 9.6 68.4 18.0------ 0.9--x---------
2016-08-29 20.8 25.9 15.1 13.0 68.1 16.3------ 0.0--x---------
2016-08-30 16.2 23.0 8.8 7.2 68.3 12.1------ 0.0--x---------
2016-08-31 16.1 25.6 6.6 4.9 69.5 11.8------ 0.0--x---------
2016-09-01 17.0 27.3 6.2 4.9 69.8 12.5------ 0.0--x---------
2016-09-02 17.2 25.6 10.2 8.1 73.8 13.7------ 0.0--x---------
2016-09-03 18.4 26.9 11.1 9.1 71.4 14.1------ 0.0--x---------
2016-09-04 17.1 23.9 10.7 9.3 84.8 16.4------ 2.8--x---------
2016-09-05 16.2 21.0 11.9 9.7 86.4 15.8------ 0.8--x---------
2016-09-06 15.2 23.1 8.3 5.8 81.3 13.6------ 0.0--x---------
2016-09-07 16.7 26.6 6.4 4.6 77.1 14.0------ 0.0--x---------
2016-09-08 19.7 29.6 10.1 7.9 73.7 15.8------ 0.0--x---------
2016-09-09 20.0 29.3 11.8 9.9 74.0 16.5------ 0.0--x---------
2016-09-10 19.1 27.5 11.9 10.4 79.1 16.9------ 0.0--x---------
2016-09-11 21.1 31.2 13.3 11.8 74.4 17.7------ 0.0--x---------
111.8 ms

 

Źródłem pochodzenia danych jest Instytut Meteorologii i Gospodarki Wodnej – Państwowy Instytut Badawczy. Dane Instytutu Meteorologii i Gospodarki Wodnej – Państwowego Instytutu Badawczego zostały przetworzone.

Dane źródłowe można odnaleźć na stronie https://dane.imgw.pl